Time;durP1;ratioP1;P1;durP2;ratioP2;P2;SDS_P1;SDS_P2;PMS_P1;PMS_P2;Temp;Humidity;BMP_temperature;BMP_pressure;BME280_temperature;BME280_humidity;BME280_pressure;Samples;Min_cycle;Max_cycle;Signal;HPM_P1;HPM_P2
2021/09/18 00:00:14;;;;;;;9.48;5.68;;;17.30;94.90;;;;;;5054293;28;20037;-75
2021/09/18 00:02:39;;;;;;;8.27;4.82;;;17.30;94.90;;;;;;5053545;28;20025;-75
2021/09/18 00:05:05;;;;;;;9.30;4.50;;;17.30;94.90;;;;;;5053705;28;20025;-75
2021/09/18 00:07:31;;;;;;;9.52;5.13;;;17.30;94.90;;;;;;5052586;28;20017;-76
2021/09/18 00:09:57;;;;;;;7.47;4.20;;;17.20;94.90;;;;;;5053177;28;20132;-75
2021/09/18 00:12:23;;;;;;;9.38;4.68;;;17.20;94.90;;;;;;5053872;28;20090;-75
2021/09/18 00:14:48;;;;;;;7.90;4.40;;;17.30;94.90;;;;;;5053226;28;20075;-75
2021/09/18 00:17:14;;;;;;;8.77;4.47;;;17.20;94.90;;;;;;5053759;28;20075;-75
2021/09/18 00:19:40;;;;;;;8.55;4.55;;;17.20;94.90;;;;;;5053092;28;20021;-73
2021/09/18 00:22:05;;;;;;;8.02;4.25;;;17.20;94.90;;;;;;5053976;28;20410;-74
2021/09/18 00:24:31;;;;;;;7.78;3.97;;;17.20;94.90;;;;;;5052590;28;20070;-75
2021/09/18 00:26:57;;;;;;;7.30;4.03;;;17.10;94.90;;;;;;5052748;28;20033;-75
2021/09/18 00:29:22;;;;;;;6.97;4.10;;;17.10;94.90;;;;;;5053241;28;20053;-75
2021/09/18 00:31:48;;;;;;;6.10;3.40;;;17.10;94.90;;;;;;5052512;28;20090;-75
2021/09/18 00:34:14;;;;;;;6.90;3.63;;;17.10;94.90;;;;;;5053489;28;20029;-75
2021/09/18 00:36:39;;;;;;;7.88;3.83;;;17.10;94.90;;;;;;5052775;28;20104;-74
2021/09/18 00:39:05;;;;;;;6.95;3.40;;;17.10;94.90;;;;;;5053330;28;20078;-74
2021/09/18 00:41:31;;;;;;;6.20;3.47;;;17.00;94.90;;;;;;5052207;28;20032;-74
2021/09/18 00:43:58;;;;;;;7.18;3.50;;;17.00;94.90;;;;;;5053006;28;20091;-74
2021/09/18 00:46:24;;;;;;;5.68;3.25;;;17.00;95.00;;;;;;5051957;28;20115;-75
2021/09/18 00:48:50;;;;;;;5.75;3.80;;;17.00;95.00;;;;;;5052443;28;20025;-75
2021/09/18 00:51:17;;;;;;;5.75;3.22;;;17.00;94.90;;;;;;5051646;28;20033;-75
2021/09/18 00:53:44;;;;;;;6.50;3.40;;;17.00;94.90;;;;;;5052493;28;20021;-75
2021/09/18 00:56:10;;;;;;;6.88;3.40;;;17.00;94.90;;;;;;5053149;28;20048;-73
2021/09/18 00:58:36;;;;;;;7.75;3.60;;;17.00;94.80;;;;;;5051530;28;20489;-75
2021/09/18 01:01:03;;;;;;;7.00;3.70;;;16.90;94.80;;;;;;5052331;28;20029;-76
2021/09/18 01:03:28;;;;;;;6.30;3.35;;;16.90;94.90;;;;;;5051576;28;20531;-75
2021/09/18 01:05:57;;;;;;;7.30;3.25;;;16.90;94.90;;;;;;5051988;28;20067;-75
2021/09/18 01:08:25;;;;;;;6.60;3.28;;;16.90;94.90;;;;;;5052810;28;20025;-77
2021/09/18 01:10:51;;;;;;;6.55;3.38;;;16.80;94.90;;;;;;5050715;28;20039;-75
2021/09/18 01:13:20;;;;;;;6.72;3.33;;;16.80;94.90;;;;;;5051425;28;20032;-75
2021/09/18 01:15:48;;;;;;;5.28;2.95;;;16.80;94.90;;;;;;5050713;28;20349;-75
2021/09/18 01:18:14;;;;;;;4.82;2.70;;;16.80;94.90;;;;;;5052280;28;20403;-75
2021/09/18 01:20:42;;;;;;;5.38;3.00;;;16.70;94.90;;;;;;5052576;28;20028;-75
2021/09/18 01:23:09;;;;;;;6.43;2.88;;;16.70;94.90;;;;;;5052567;28;20017;-75
2021/09/18 01:25:37;;;;;;;6.72;3.38;;;16.70;94.90;;;;;;5052545;28;20025;-75
2021/09/18 01:28:05;;;;;;;5.43;2.92;;;16.70;94.90;;;;;;5051843;28;20032;-75
2021/09/18 01:30:32;;;;;;;5.30;2.88;;;16.70;94.90;;;;;;5051865;28;20235;-75
2021/09/18 01:32:59;;;;;;;4.82;2.80;;;16.70;95.00;;;;;;5051768;28;20082;-75
2021/09/18 01:35:25;;;;;;;7.07;2.83;;;16.70;94.90;;;;;;5050835;28;20091;-75
2021/09/18 01:37:51;;;;;;;5.30;2.92;;;16.70;94.90;;;;;;5050362;28;20021;-75
2021/09/18 01:40:22;;;;;;;4.93;2.75;;;16.60;94.90;;;;;;5051240;28;20017;-76
2021/09/18 01:42:48;;;;;;;5.57;2.80;;;16.60;95.00;;;;;;5051622;28;20025;-75
2021/09/18 01:45:15;;;;;;;4.45;2.80;;;16.60;95.00;;;;;;5052064;28;20394;-75
2021/09/18 01:47:48;;;;;;;5.93;3.00;;;16.50;95.10;;;;;;5051894;28;20056;-75
2021/09/18 01:50:34;;;;;;;5.75;3.60;;;16.50;95.10;;;;;;5050708;28;20021;-75
2021/09/18 01:53:07;;;;;;;5.05;2.92;;;16.50;95.10;;;;;;5051542;28;20067;-74
2021/09/18 01:55:34;;;;;;;7.10;3.05;;;16.50;95.10;;;;;;5050800;28;20048;-76
2021/09/18 01:58:01;;;;;;;5.80;3.03;;;16.50;95.10;;;;;;5051121;28;20036;-75
2021/09/18 02:00:27;;;;;;;5.55;2.90;;;16.50;95.00;;;;;;5051961;28;20025;-75
2021/09/18 02:02:54;;;;;;;6.47;3.63;;;16.50;95.00;;;;;;5051279;28;20021;-75
2021/09/18 02:05:24;;;;;;;7.75;3.35;;;16.50;95.00;;;;;;5052061;28;20024;-74
2021/09/18 02:07:50;;;;;;;6.22;3.33;;;16.50;95.00;;;;;;5051095;28;20040;-74
2021/09/18 02:10:19;;;;;;;8.18;3.33;;;16.50;95.00;;;;;;5051763;28;20461;-74
2021/09/18 02:12:46;;;;;;;7.25;3.65;;;16.40;95.00;;;;;;5050917;28;20052;-75
2021/09/18 02:15:13;;;;;;;6.10;3.17;;;16.40;95.00;;;;;;5050508;28;20048;-74
2021/09/18 02:17:39;;;;;;;6.35;3.10;;;16.40;95.00;;;;;;5050483;28;20025;-75
2021/09/18 02:20:07;;;;;;;7.00;3.30;;;16.40;95.00;;;;;;5051209;28;20601;-75
2021/09/18 02:22:32;;;;;;;8.15;3.65;;;16.40;95.10;;;;;;5051726;28;20025;-75
2021/09/18 02:24:58;;;;;;;6.95;3.67;;;16.30;95.10;;;;;;5051130;28;20029;-75
2021/09/18 02:27:23;;;;;;;6.97;3.50;;;16.30;95.10;;;;;;5050361;28;20025;-75
2021/09/18 02:29:49;;;;;;;7.03;3.38;;;16.30;95.20;;;;;;5049333;28;20461;-76
2021/09/18 02:32:15;;;;;;;6.20;3.00;;;16.30;95.10;;;;;;5050449;28;20075;-76
2021/09/18 02:34:41;;;;;;;7.50;3.53;;;16.30;95.10;;;;;;5051771;28;20044;-76
2021/09/18 02:37:06;;;;;;;7.40;3.40;;;16.30;95.10;;;;;;5050993;28;20029;-76
2021/09/18 02:39:32;;;;;;;6.53;3.53;;;16.40;95.10;;;;;;5050316;28;20040;-75
2021/09/18 02:41:58;;;;;;;6.50;3.38;;;16.30;95.00;;;;;;5049709;28;20029;-75
2021/09/18 02:44:24;;;;;;;7.53;3.88;;;16.40;95.10;;;;;;5050476;28;20428;-75
2021/09/18 02:46:49;;;;;;;7.55;3.85;;;16.30;95.00;;;;;;5050908;28;20488;-75
2021/09/18 02:49:15;;;;;;;7.47;4.00;;;16.30;95.00;;;;;;5055637;28;20061;-75
2021/09/18 02:51:41;;;;;;;6.65;3.42;;;16.30;95.00;;;;;;5054056;28;20128;-75
2021/09/18 02:54:07;;;;;;;7.88;3.45;;;16.30;95.00;;;;;;5053488;28;20324;-75
2021/09/18 02:56:32;;;;;;;7.78;3.78;;;16.30;95.00;;;;;;5054970;28;20476;-75
2021/09/18 02:58:58;;;;;;;7.38;3.80;;;16.30;95.00;;;;;;5054612;28;20021;-75
2021/09/18 03:01:24;;;;;;;6.18;3.70;;;16.30;95.10;;;;;;5053930;28;20048;-75
2021/09/18 03:03:49;;;;;;;9.13;3.92;;;16.30;95.00;;;;;;5053416;28;20025;-74
2021/09/18 03:06:15;;;;;;;11.07;4.03;;;16.30;95.00;;;;;;5055395;28;20025;-75
2021/09/18 03:08:41;;;;;;;6.95;3.90;;;16.20;94.90;;;;;;5055299;28;20025;-74
2021/09/18 03:11:07;;;;;;;6.43;3.60;;;16.20;94.90;;;;;;5054049;28;20029;-75
2021/09/18 03:13:35;;;;;;;6.28;3.85;;;16.20;94.90;;;;;;5054617;28;20470;-76
2021/09/18 03:16:02;;;;;;;5.70;3.55;;;16.20;95.00;;;;;;5054293;28;20076;-75
2021/09/18 03:18:28;;;;;;;8.77;3.95;;;16.20;95.00;;;;;;5053632;28;20373;-76
2021/09/18 03:20:53;;;;;;;8.55;4.53;;;16.20;95.00;;;;;;5052824;28;20469;-75
2021/09/18 03:23:19;;;;;;;7.68;3.80;;;16.20;95.00;;;;;;5055039;28;20029;-75
2021/09/18 03:25:45;;;;;;;6.65;4.22;;;16.20;94.90;;;;;;5054829;28;20021;-75
2021/09/18 03:28:10;;;;;;;7.18;3.97;;;16.20;94.90;;;;;;5053777;28;20033;-74
2021/09/18 03:30:36;;;;;;;9.18;4.45;;;16.20;94.90;;;;;;5053193;28;20044;-75
2021/09/18 03:33:02;;;;;;;7.00;3.90;;;16.10;94.90;;;;;;5054320;28;20092;-75
2021/09/18 03:35:28;;;;;;;7.97;4.28;;;16.10;94.90;;;;;;5053469;28;20106;-75
2021/09/18 03:37:54;;;;;;;7.78;3.53;;;16.10;94.90;;;;;;5053937;28;20021;-75
2021/09/18 03:40:20;;;;;;;7.57;3.63;;;16.10;94.90;;;;;;5054522;28;20032;-75
2021/09/18 03:42:46;;;;;;;7.03;4.00;;;16.10;94.90;;;;;;5054508;28;20381;-75
2021/09/18 03:45:12;;;;;;;6.85;3.72;;;16.10;94.90;;;;;;5054177;28;20025;-76
2021/09/18 03:47:38;;;;;;;7.70;4.28;;;16.00;94.90;;;;;;5054023;28;20021;-75
2021/09/18 03:50:05;;;;;;;7.53;3.83;;;16.00;94.90;;;;;;5053345;28;20056;-75
2021/09/18 03:52:31;;;;;;;9.25;4.50;;;16.00;94.90;;;;;;5054248;28;20039;-75
2021/09/18 03:54:57;;;;;;;8.45;4.82;;;16.00;94.90;;;;;;5052311;28;20116;-75
2021/09/18 03:57:23;;;;;;;8.95;4.28;;;16.00;94.90;;;;;;5053082;28;20025;-75
2021/09/18 03:59:49;;;;;;;8.50;4.20;;;16.00;94.90;;;;;;5052899;28;20013;-75
2021/09/18 04:02:14;;;;;;;9.73;4.90;;;15.90;94.80;;;;;;5053517;28;20526;-74
2021/09/18 04:04:40;;;;;;;9.88;4.65;;;15.90;94.90;;;;;;5054046;28;20049;-75
2021/09/18 04:07:06;;;;;;;8.48;4.53;;;15.90;94.90;;;;;;5052095;28;20017;-75
2021/09/18 04:09:31;;;;;;;11.30;4.45;;;15.80;94.90;;;;;;5052658;28;20021;-74
2021/09/18 04:11:57;;;;;;;10.45;4.72;;;15.90;94.90;;;;;;5051919;28;20044;-75
2021/09/18 04:14:23;;;;;;;9.90;4.57;;;15.80;94.90;;;;;;5052528;28;20388;-75
2021/09/18 04:16:49;;;;;;;9.75;4.80;;;15.80;94.90;;;;;;5053564;28;20021;-74
2021/09/18 04:19:14;;;;;;;9.45;4.18;;;15.80;94.90;;;;;;5053210;28;20028;-75
2021/09/18 04:21:40;;;;;;;9.55;4.97;;;15.80;94.90;;;;;;5054094;28;20017;-75
2021/09/18 04:24:06;;;;;;;10.15;5.10;;;15.70;94.90;;;;;;5051845;28;20021;-74
2021/09/18 04:26:33;;;;;;;11.63;6.10;;;15.70;94.90;;;;;;5052659;28;20017;-75
2021/09/18 04:28:59;;;;;;;12.32;5.90;;;15.70;94.90;;;;;;5051438;28;20365;-75
2021/09/18 04:31:25;;;;;;;12.35;6.13;;;15.70;94.90;;;;;;5053222;28;20032;-75
2021/09/18 04:33:51;;;;;;;10.07;5.95;;;15.70;94.90;;;;;;5052177;28;20021;-75
2021/09/18 04:36:16;;;;;;;10.32;5.70;;;15.70;94.90;;;;;;5051591;28;20111;-74
2021/09/18 04:38:42;;;;;;;12.00;6.13;;;15.60;94.90;;;;;;5053401;28;20461;-75
2021/09/18 04:41:08;;;;;;;11.25;5.30;;;15.60;94.90;;;;;;5051405;28;20021;-75
2021/09/18 04:43:34;;;;;;;11.68;5.90;;;15.60;94.90;;;;;;5052060;28;20465;-76
2021/09/18 04:46:00;;;;;;;10.02;5.18;;;15.60;94.80;;;;;;5052624;28;20024;-74
2021/09/18 04:48:25;;;;;;;10.80;5.22;;;15.60;94.90;;;;;;5053474;28;20083;-75
2021/09/18 04:50:52;;;;;;;10.77;5.22;;;15.60;94.90;;;;;;5053068;28;20036;-75
2021/09/18 04:53:17;;;;;;;10.25;5.55;;;15.60;94.90;;;;;;5050888;28;20025;-75
2021/09/18 04:55:43;;;;;;;11.50;5.25;;;15.50;94.90;;;;;;5051827;28;20028;-76
2021/09/18 04:58:09;;;;;;;10.82;5.20;;;15.50;95.00;;;;;;5052418;28;20025;-75
2021/09/18 05:00:35;;;;;;;12.55;6.07;;;15.50;95.00;;;;;;5055461;28;20086;-75
2021/09/18 05:03:01;;;;;;;10.23;5.72;;;15.50;95.00;;;;;;5072078;28;20380;-75
2021/09/18 05:05:26;;;;;;;12.95;5.60;;;15.50;95.00;;;;;;5072482;28;20036;-75
2021/09/18 05:07:52;;;;;;;9.60;5.07;;;15.50;95.00;;;;;;5071205;28;20024;-75
2021/09/18 05:10:18;;;;;;;10.30;5.63;;;15.40;95.00;;;;;;5071408;28;20032;-74
2021/09/18 05:12:44;;;;;;;9.25;4.75;;;15.40;95.00;;;;;;5071135;28;20028;-75
2021/09/18 05:15:10;;;;;;;9.80;5.05;;;15.40;95.00;;;;;;5071712;28;20033;-74
2021/09/18 05:17:35;;;;;;;10.40;5.38;;;15.40;95.00;;;;;;5072818;28;20056;-76
2021/09/18 05:20:02;;;;;;;12.35;5.53;;;15.40;95.10;;;;;;5072013;28;20032;-76
2021/09/18 05:22:27;;;;;;;10.45;5.38;;;15.40;95.00;;;;;;5072574;28;20099;-77
2021/09/18 05:24:53;;;;;;;8.93;4.90;;;15.40;95.40;;;;;;5072506;28;20044;-76
2021/09/18 05:27:19;;;;;;;9.60;5.07;;;15.40;95.20;;;;;;5071766;28;20029;-74
2021/09/18 05:29:45;;;;;;;9.20;4.93;;;15.40;95.20;;;;;;5071826;28;20037;-75
2021/09/18 05:32:11;;;;;;;8.77;4.40;;;15.40;95.20;;;;;;5071577;28;20024;-74
2021/09/18 05:34:37;;;;;;;11.10;5.35;;;15.40;95.20;;;;;;5070913;28;20066;-74
2021/09/18 05:37:04;;;;;;;7.85;4.13;;;15.40;95.20;;;;;;5071504;28;20047;-75
2021/09/18 05:39:30;;;;;;;9.07;4.70;;;15.40;95.20;;;;;;5072115;28;20094;-75
2021/09/18 05:41:55;;;;;;;7.90;4.40;;;15.40;95.30;;;;;;5071997;28;20025;-75
2021/09/18 05:44:21;;;;;;;8.38;4.50;;;15.40;95.30;;;;;;5071483;28;20029;-75
2021/09/18 05:46:47;;;;;;;8.45;4.38;;;15.40;95.20;;;;;;5072542;28;20078;-75
2021/09/18 05:49:12;;;;;;;8.15;4.80;;;15.40;95.10;;;;;;5070106;28;20055;-75
2021/09/18 05:51:38;;;;;;;9.55;4.88;;;15.40;95.10;;;;;;5071996;28;20020;-75
2021/09/18 05:54:04;;;;;;;9.10;4.80;;;15.40;95.00;;;;;;5070175;28;20020;-75
2021/09/18 05:56:29;;;;;;;9.05;4.40;;;15.40;95.00;;;;;;5071966;28;20141;-74
2021/09/18 05:58:55;;;;;;;10.52;5.55;;;15.50;94.90;;;;;;5072055;28;20384;-75
2021/09/18 06:01:21;;;;;;;9.25;5.40;;;15.50;94.90;;;;;;5070283;28;20036;-74
2021/09/18 06:03:46;;;;;;;9.10;5.55;;;15.50;94.90;;;;;;5070858;28;20349;-75
2021/09/18 06:06:12;;;;;;;8.98;4.60;;;15.50;94.80;;;;;;5071030;28;20468;-74
2021/09/18 06:08:38;;;;;;;10.07;5.00;;;15.60;94.80;;;;;;5070469;28;20035;-76
2021/09/18 06:11:03;;;;;;;8.93;4.38;;;15.60;94.80;;;;;;5069945;28;20036;-77
2021/09/18 06:13:29;;;;;;;9.57;4.93;;;15.60;94.70;;;;;;5070497;28;20055;-76
2021/09/18 06:15:55;;;;;;;11.73;5.75;;;15.70;94.70;;;;;;5070566;28;20044;-75
2021/09/18 06:18:21;;;;;;;11.55;5.38;;;15.70;94.70;;;;;;5071028;28;20407;-75
2021/09/18 06:20:46;;;;;;;10.63;5.60;;;15.70;94.70;;;;;;5071986;28;20035;-75
2021/09/18 06:23:12;;;;;;;10.77;5.45;;;15.80;94.70;;;;;;5075027;28;20061;-76
2021/09/18 06:25:38;;;;;;;9.23;4.40;;;15.80;94.70;;;;;;5075731;28;20100;-75
2021/09/18 06:28:03;;;;;;;11.13;5.97;;;15.80;94.70;;;;;;5074033;28;20052;-75
2021/09/18 06:30:29;;;;;;;10.30;5.50;;;15.80;94.70;;;;;;5075412;28;20450;-76
2021/09/18 06:32:55;;;;;;;10.25;5.45;;;15.80;94.60;;;;;;5075904;28;20029;-75
2021/09/18 06:35:21;;;;;;;11.02;5.38;;;15.90;94.60;;;;;;5075076;28;20191;-74
2021/09/18 06:37:48;;;;;;;10.00;5.38;;;15.90;94.60;;;;;;5075368;28;20031;-76
2021/09/18 06:40:17;;;;;;;10.15;5.15;;;15.90;94.50;;;;;;5075102;28;20464;-75
2021/09/18 06:42:42;;;;;;;7.78;4.10;;;15.90;94.50;;;;;;5074367;28;20369;-76
2021/09/18 06:45:09;;;;;;;7.72;4.32;;;16.00;94.80;;;;;;5075128;28;20111;-76
2021/09/18 06:47:35;;;;;;;7.65;4.43;;;16.00;94.50;;;;;;5075473;28;20063;-76
2021/09/18 06:50:02;;;;;;;9.07;4.55;;;15.90;94.60;;;;;;5074149;28;20064;-76
2021/09/18 06:52:28;;;;;;;10.95;5.43;;;15.80;94.70;;;;;;5073532;28;20025;-76
2021/09/18 06:54:54;;;;;;;11.45;5.85;;;15.90;94.80;;;;;;5075218;28;20027;-76
2021/09/18 06:57:20;;;;;;;9.27;4.88;;;15.90;94.80;;;;;;5074603;28;20419;-75
2021/09/18 06:59:45;;;;;;;9.55;5.05;;;16.00;94.80;;;;;;5074879;28;20023;-75
2021/09/18 07:02:11;;;;;;;9.45;4.93;;;16.00;94.70;;;;;;5074463;28;20024;-74
2021/09/18 07:04:37;;;;;;;9.52;4.43;;;16.00;94.70;;;;;;5073820;28;20020;-75
2021/09/18 07:07:03;;;;;;;8.15;4.53;;;16.00;94.70;;;;;;5075048;28;20497;-75
2021/09/18 07:09:29;;;;;;;7.82;4.35;;;16.00;94.80;;;;;;5074096;28;20032;-75
2021/09/18 07:11:55;;;;;;;8.52;4.53;;;15.90;94.90;;;;;;5074447;28;20032;-75
2021/09/18 07:14:20;;;;;;;8.40;4.57;;;15.90;95.00;;;;;;5073956;28;20021;-75
2021/09/18 07:16:46;;;;;;;9.93;4.55;;;15.90;94.90;;;;;;5074719;28;20031;-75
2021/09/18 07:19:12;;;;;;;9.63;4.97;;;15.90;94.90;;;;;;5073836;28;20044;-75
2021/09/18 07:21:37;;;;;;;8.82;4.70;;;16.00;95.00;;;;;;5074711;28;20060;-75
2021/09/18 07:24:06;;;;;;;9.65;4.97;;;16.00;95.00;;;;;;5074375;28;20024;-75
2021/09/18 07:26:35;;;;;;;8.85;4.57;;;16.10;95.00;;;;;;5073329;28;20024;-75
2021/09/18 07:29:00;;;;;;;10.27;4.93;;;16.10;94.90;;;;;;5074153;28;20045;-75
2021/09/18 07:31:26;;;;;;;9.85;4.78;;;16.20;94.90;;;;;;5073874;28;20305;-75
2021/09/18 07:33:52;;;;;;;8.90;5.03;;;16.30;94.70;;;;;;5074015;28;20028;-75
2021/09/18 07:36:18;;;;;;;10.20;5.75;;;16.40;94.70;;;;;;5074129;28;20020;-75
2021/09/18 07:38:44;;;;;;;11.13;5.72;;;16.40;94.70;;;;;;5073913;28;20070;-75
2021/09/18 07:41:10;;;;;;;10.30;5.82;;;16.40;94.80;;;;;;5074118;28;20408;-75
2021/09/18 07:43:35;;;;;;;11.07;5.35;;;16.40;94.80;;;;;;5074118;28;20036;-74
2021/09/18 07:46:02;;;;;;;10.43;5.45;;;16.50;94.90;;;;;;5073093;28;20064;-75
2021/09/18 07:48:29;;;;;;;8.80;4.57;;;16.50;94.90;;;;;;5073816;28;20483;-75
2021/09/18 07:50:55;;;;;;;10.57;5.10;;;16.60;94.80;;;;;;5074093;28;20487;-75
2021/09/18 07:53:21;;;;;;;9.68;5.30;;;16.70;94.80;;;;;;5072367;28;20070;-76
2021/09/18 07:55:46;;;;;;;12.68;6.32;;;16.80;94.70;;;;;;5072748;28;20020;-76
2021/09/18 07:58:12;;;;;;;10.88;4.97;;;16.90;94.50;;;;;;5073165;28;20056;-76
2021/09/18 08:00:38;;;;;;;11.27;6.32;;;17.10;94.40;;;;;;5072757;28;20445;-76
2021/09/18 08:03:04;;;;;;;11.57;5.72;;;17.20;94.20;;;;;;5074113;28;20047;-76
2021/09/18 08:05:29;;;;;;;10.98;6.00;;;17.20;94.10;;;;;;5071691;28;20036;-76
2021/09/18 08:07:55;;;;;;;11.75;5.90;;;17.20;94.20;;;;;;5072371;28;20027;-76
2021/09/18 08:10:21;;;;;;;9.63;4.97;;;17.20;94.60;;;;;;5073264;28;20124;-76
2021/09/18 08:12:50;;;;;;;11.25;5.70;;;17.10;94.50;;;;;;5072152;28;20021;-76
2021/09/18 08:15:17;;;;;;;11.00;6.03;;;17.10;94.60;;;;;;5073416;28;20055;-76
2021/09/18 08:17:45;;;;;;;11.93;6.15;;;17.10;94.70;;;;;;5074037;28;20079;-76
2021/09/18 08:20:12;;;;;;;10.73;5.53;;;17.10;94.70;;;;;;5073074;28;20020;-75
2021/09/18 08:22:38;;;;;;;11.38;5.50;;;17.30;94.60;;;;;;5073874;28;20032;-75
2021/09/18 08:25:06;;;;;;;8.80;4.90;;;17.40;94.50;;;;;;5073963;28;20027;-75
2021/09/18 08:27:31;;;;;;;9.43;5.53;;;17.40;94.40;;;;;;5072679;28;20166;-75
2021/09/18 08:29:57;;;;;;;9.48;5.50;;;17.40;94.40;;;;;;5072963;28;20497;-75
2021/09/18 08:32:23;;;;;;;10.93;6.05;;;17.50;94.40;;;;;;5071581;28;20036;-75
2021/09/18 08:34:48;;;;;;;10.70;5.53;;;17.50;94.40;;;;;;5072196;28;20016;-75
2021/09/18 08:37:14;;;;;;;9.88;5.32;;;17.50;94.40;;;;;;5072473;28;20036;-75
2021/09/18 08:39:40;;;;;;;10.48;5.15;;;17.50;94.50;;;;;;5073251;28;20525;-75
2021/09/18 08:42:09;;;;;;;9.88;5.30;;;17.60;94.50;;;;;;5073353;28;20035;-77
2021/09/18 08:44:35;;;;;;;11.77;6.28;;;17.50;94.50;;;;;;5071846;28;20464;-77
2021/09/18 08:47:01;;;;;;;12.20;7.20;;;17.50;94.40;;;;;;5073263;28;20074;-76
2021/09/18 08:49:28;;;;;;;12.30;6.40;;;17.50;94.50;;;;;;5072724;28;20021;-77
2021/09/18 08:51:54;;;;;;;13.48;6.55;;;17.50;94.60;;;;;;5073314;28;20028;-77
2021/09/18 08:54:20;;;;;;;9.30;4.65;;;17.50;94.60;;;;;;5072506;28;20024;-74
2021/09/18 08:56:46;;;;;;;10.70;6.15;;;17.60;94.60;;;;;;5071720;28;20016;-75
2021/09/18 08:59:11;;;;;;;13.05;6.72;;;17.60;94.80;;;;;;5071653;28;20078;-76
2021/09/18 09:01:37;;;;;;;11.55;6.80;;;17.70;94.60;;;;;;5072818;28;20032;-76
2021/09/18 09:04:07;;;;;;;10.07;5.63;;;17.70;94.60;;;;;;5072738;28;20425;-76
2021/09/18 09:06:47;;;;;;;10.23;5.70;;;17.80;94.60;;;;;;5072335;28;20259;-76
2021/09/18 09:09:14;;;;;;;10.98;5.78;;;17.80;94.60;;;;;;5073029;28;20028;-76
2021/09/18 09:11:50;;;;;;;13.98;7.00;;;17.90;94.60;;;;;;5071652;28;20475;-76
2021/09/18 09:14:17;;;;;;;16.30;8.13;;;17.90;94.60;;;;;;5071874;28;20029;-76
2021/09/18 09:17:05;;;;;;;15.02;7.97;;;17.90;94.60;;;;;;5071682;28;20090;-76
2021/09/18 09:19:41;;;;;;;10.98;6.30;;;18.00;94.60;;;;;;5072471;28;20023;-76
2021/09/18 09:22:07;;;;;;;13.88;7.18;;;18.00;94.60;;;;;;5073335;28;20078;-76
2021/09/18 09:24:33;;;;;;;14.13;7.03;;;18.00;94.60;;;;;;5072268;28;20035;-77
2021/09/18 09:27:10;;;;;;;14.32;7.72;;;18.10;94.60;;;;;;5073245;28;20349;-76
2021/09/18 09:29:53;;;;;;;13.02;6.28;;;18.10;94.60;;;;;;5071965;28;20058;-76
2021/09/18 09:32:37;;;;;;;16.77;8.32;;;18.20;94.60;;;;;;5073016;28;20033;-77
2021/09/18 09:35:10;;;;;;;18.48;8.95;;;18.20;94.60;;;;;;5073215;28;20045;-76
2021/09/18 09:37:36;;;;;;;19.90;8.65;;;18.20;94.60;;;;;;5071643;28;20131;-76
2021/09/18 09:40:06;;;;;;;19.30;8.93;;;18.30;94.60;;;;;;5073288;28;20028;-76
2021/09/18 09:42:35;;;;;;;22.60;10.38;;;18.30;94.60;;;;;;5070403;28;20028;-76
2021/09/18 09:45:20;;;;;;;20.70;10.23;;;18.30;94.70;;;;;;5073256;28;20021;-76
2021/09/18 09:48:04;;;;;;;18.52;10.38;;;18.40;94.70;;;;;;5072666;28;20134;-76
2021/09/18 09:50:30;;;;;;;23.15;11.73;;;18.30;94.70;;;;;;5071758;28;20055;-77
2021/09/18 09:52:56;;;;;;;24.25;12.35;;;18.40;94.70;;;;;;5072093;28;20059;-77
2021/09/18 09:55:23;;;;;;;22.35;10.77;;;18.40;94.70;;;;;;5071919;28;20492;-76
2021/09/18 09:58:10;;;;;;;24.95;12.50;;;18.40;94.70;;;;;;5072425;28;20032;-75
2021/09/18 10:00:39;;;;;;;21.58;10.07;;;18.40;94.70;;;;;;5071410;28;20056;-75
2021/09/18 10:03:05;;;;;;;23.25;11.48;;;18.40;94.70;;;;;;5070115;28;20030;-75
2021/09/18 10:05:31;;;;;;;18.05;9.23;;;18.50;94.60;;;;;;5069906;28;20024;-75
2021/09/18 10:07:59;;;;;;;27.65;13.80;;;18.60;94.70;;;;;;5071873;28;20025;-76
2021/09/18 10:10:25;;;;;;;26.65;13.25;;;18.60;94.60;;;;;;5071224;28;20032;-76
2021/09/18 10:12:51;;;;;;;27.45;13.55;;;18.60;94.60;;;;;;5071828;28;20036;-76
2021/09/18 10:15:18;;;;;;;26.92;12.80;;;18.60;94.60;;;;;;5071625;28;20021;-76
2021/09/18 10:17:46;;;;;;;23.88;11.45;;;18.70;94.60;;;;;;5071899;28;20029;-76
2021/09/18 10:25:49;;;;;;;28.17;12.30;;;18.70;94.50;;;;;;5062280;28;20087;-76
2021/09/18 10:28:21;;;;;;;25.95;14.52;;;18.80;94.50;;;;;;5070198;28;20385;-75
2021/09/18 10:30:57;;;;;;;28.25;13.65;;;18.80;94.40;;;;;;5069341;28;20037;-75
2021/09/18 10:33:33;;;;;;;28.67;13.43;;;18.80;94.40;;;;;;5054679;28;20024;-75
2021/09/18 10:36:00;;;;;;;28.83;14.27;;;18.90;94.40;;;;;;5050238;28;20405;-74
2021/09/18 10:38:28;;;;;;;26.45;12.00;;;19.00;94.30;;;;;;5050031;28;20017;-75
2021/09/18 10:41:01;;;;;;;28.38;14.65;;;19.00;94.30;;;;;;5050895;28;20341;-75
2021/09/18 10:43:38;;;;;;;23.00;11.75;;;19.10;94.30;;;;;;5050897;28;20505;-75
2021/09/18 10:46:06;;;;;;;25.58;13.73;;;19.10;94.20;;;;;;5050384;28;20040;-74
2021/09/18 10:48:39;;;;;;;17.08;8.65;;;19.10;94.20;;;;;;5049676;28;20024;-75
2021/09/18 10:51:05;;;;;;;29.33;13.35;;;19.10;94.10;;;;;;5054191;28;20029;-75
2021/09/18 10:54:11;;;;;;;30.48;14.10;;;19.20;94.10;;;;;;5051217;28;20052;-75
2021/09/18 10:56:55;;;;;;;22.02;12.30;;;19.20;94.10;;;;;;5049713;28;20018;-75
2021/09/18 10:59:45;;;;;;;32.75;15.35;;;19.30;94.10;;;;;;5051494;28;20017;-76
2021/09/18 11:02:32;;;;;;;31.00;15.90;;;19.30;94.00;;;;;;5051652;28;20021;-75
2021/09/18 11:05:08;;;;;;;29.92;16.15;;;19.40;94.00;;;;;;5051524;28;20021;-75
2021/09/18 11:07:40;;;;;;;26.48;13.88;;;19.40;93.90;;;;;;5050168;28;20021;-76
2021/09/18 11:10:11;;;;;;;23.52;12.23;;;19.50;93.90;;;;;;5055197;28;20021;-75
2021/09/18 11:12:37;;;;;;;32.35;16.35;;;19.60;93.90;;;;;;5054470;28;20024;-75
2021/09/18 11:15:09;;;;;;;30.55;15.45;;;19.60;93.80;;;;;;5054009;28;20059;-75
2021/09/18 11:17:40;;;;;;;28.40;15.43;;;19.70;93.80;;;;;;5053320;28;20016;-76
2021/09/18 11:20:17;;;;;;;27.25;13.80;;;19.80;93.70;;;;;;5055076;28;20050;-76
2021/09/18 11:22:44;;;;;;;26.00;13.55;;;19.90;93.60;;;;;;5053968;28;20029;-75
2021/09/18 11:25:32;;;;;;;18.45;9.68;;;20.00;93.60;;;;;;5054745;28;20009;-75
2021/09/18 11:28:05;;;;;;;19.88;11.15;;;20.10;93.50;;;;;;5054564;28;20358;-75
2021/09/18 11:30:52;;;;;;;33.67;15.90;;;20.20;93.40;;;;;;5054256;28;20048;-76
2021/09/18 11:33:23;;;;;;;28.80;15.75;;;20.30;93.30;;;;;;5054869;28;20048;-75
2021/09/18 11:35:56;;;;;;;31.40;15.88;;;20.40;93.10;;;;;;5054984;28;20036;-76
2021/09/18 11:38:24;;;;;;;28.73;14.50;;;20.60;92.90;;;;;;5055503;28;20017;-76
2021/09/18 11:40:51;;;;;;;30.08;15.27;;;20.80;92.90;;;;;;5054836;28;20475;-76
2021/09/18 11:43:25;;;;;;;26.60;14.82;;;20.80;92.80;;;;;;5054907;28;20480;-76
2021/09/18 11:45:51;;;;;;;28.25;14.95;;;20.80;92.60;;;;;;5053746;28;20078;-76
2021/09/18 11:48:21;;;;;;;27.98;14.20;;;20.80;92.60;;;;;;5053128;28;20399;-76
2021/09/18 11:50:47;;;;;;;30.38;14.82;;;20.80;92.50;;;;;;5053540;28;20491;-76
2021/09/18 11:53:14;;;;;;;26.55;13.32;;;20.80;92.50;;;;;;5054609;28;20096;-76
2021/09/18 11:55:48;;;;;;;30.20;15.27;;;20.70;92.40;;;;;;5054066;28;20021;-75
2021/09/18 11:58:17;;;;;;;31.02;15.70;;;20.80;92.50;;;;;;5054343;28;20453;-75
2021/09/18 12:00:51;;;;;;;18.98;10.18;;;20.80;92.30;;;;;;5052281;28;20471;-76
2021/09/18 12:03:27;;;;;;;30.85;15.57;;;20.90;92.30;;;;;;5052916;28;20079;-76
2021/09/18 12:05:55;;;;;;;14.63;8.35;;;21.00;92.30;;;;;;5052722;28;20025;-76
2021/09/18 12:08:26;;;;;;;28.92;14.73;;;21.00;92.30;;;;;;5053972;28;20025;-77
2021/09/18 12:10:56;;;;;;;27.20;14.55;;;21.10;92.20;;;;;;5053213;28;20028;-75
2021/09/18 12:13:23;;;;;;;23.98;13.05;;;21.10;92.10;;;;;;5054538;28;20028;-76
2021/09/18 12:15:53;;;;;;;26.00;13.48;;;21.00;92.10;;;;;;5053573;28;20444;-76
2021/09/18 12:18:23;;;;;;;24.92;12.50;;;21.00;92.20;;;;;;5052552;28;20013;-76
2021/09/18 12:20:51;;;;;;;21.67;11.90;;;20.90;92.20;;;;;;5052724;28;20025;-76
2021/09/18 12:23:17;;;;;;;23.92;13.00;;;20.90;92.20;;;;;;5054057;28;20017;-76
2021/09/18 12:26:01;;;;;;;22.73;12.40;;;20.80;92.10;;;;;;5052130;28;20530;-76
2021/09/18 12:28:28;;;;;;;22.70;10.85;;;20.80;92.00;;;;;;5052724;28;20013;-76
2021/09/18 12:30:55;;;;;;;26.92;13.55;;;20.80;92.20;;;;;;5051903;28;20051;-77
2021/09/18 12:33:31;;;;;;;17.65;10.23;;;20.80;92.20;;;;;;5053781;28;20103;-77
2021/09/18 12:36:09;;;;;;;22.30;11.70;;;20.80;92.10;;;;;;5052306;28;20045;-77
2021/09/18 12:38:36;;;;;;;20.95;11.00;;;20.80;92.00;;;;;;5052817;28;20364;-77
2021/09/18 12:41:06;;;;;;;22.75;12.07;;;20.80;91.90;;;;;;5053539;28;20063;-77
2021/09/18 12:43:31;;;;;;;19.10;11.05;;;20.80;91.80;;;;;;5054065;28;20078;-76
2021/09/18 12:46:03;;;;;;;16.45;10.10;;;20.80;91.70;;;;;;5053676;28;20017;-76
2021/09/18 12:48:29;;;;;;;16.50;9.13;;;20.80;91.70;;;;;;5052141;28;20036;-75